createdAt,value
2019-03-01T00:01:16.304Z,6.40
2019-03-01T00:03:45.447Z,12.80
2019-03-01T00:06:23.558Z,5.67
2019-03-01T00:09:18.066Z,8.67
2019-03-01T00:12:06.330Z,12.57
2019-03-01T00:15:03.727Z,7.07
2019-03-01T00:17:47.643Z,4.57
2019-03-01T00:20:28.341Z,9.23
2019-03-01T00:23:02.863Z,5.80
2019-03-01T00:25:49.498Z,8.00
2019-03-01T00:28:30.145Z,9.87
2019-03-01T00:31:17.092Z,13.10
2019-03-01T00:34:11.648Z,12.83
2019-03-01T00:36:52.496Z,7.60
2019-03-01T00:39:30.064Z,7.57
2019-03-01T00:42:07.468Z,11.80
2019-03-01T00:44:40.606Z,6.13
2019-03-01T00:47:09.013Z,7.97
2019-03-01T00:49:37.618Z,13.10
2019-03-01T00:52:06.435Z,11.53
2019-03-01T00:54:34.935Z,15.63
2019-03-01T00:57:03.504Z,3.33
2019-03-01T00:59:31.979Z,8.53
2019-03-01T01:02:00.377Z,11.27
2019-03-01T01:04:28.875Z,7.73
2019-03-01T01:06:57.279Z,9.97
2019-03-01T01:09:25.679Z,13.07
2019-03-01T01:11:54.184Z,10.80
2019-03-01T01:14:22.590Z,9.20
2019-03-01T01:16:51.008Z,10.47
2019-03-01T01:19:19.515Z,13.07
2019-03-01T01:21:48.063Z,16.93
2019-03-01T01:24:16.546Z,5.13
2019-03-01T01:26:44.982Z,12.47
2019-03-01T01:29:13.382Z,13.33
2019-03-01T01:31:41.794Z,7.07
2019-03-01T01:34:10.221Z,8.67
2019-03-01T01:36:38.644Z,4.47
2019-03-01T01:39:07.950Z,9.77
2019-03-01T01:41:36.387Z,8.03
2019-03-01T01:44:05.561Z,16.67
2019-03-01T01:46:34.040Z,15.37
2019-03-01T01:49:02.523Z,11.07
2019-03-01T01:51:30.942Z,17.13
2019-03-01T01:53:59.446Z,18.97
2019-03-01T01:56:27.966Z,11.50
2019-03-01T01:58:56.407Z,10.47
2019-03-01T02:01:24.887Z,9.13
2019-03-01T02:03:53.410Z,11.33
2019-03-01T02:06:21.807Z,9.00
2019-03-01T02:08:50.213Z,16.07
2019-03-01T02:11:18.651Z,11.33
2019-03-01T02:13:47.058Z,8.73
2019-03-01T02:16:15.608Z,12.67
2019-03-01T02:18:44.047Z,5.07
2019-03-01T02:21:12.522Z,13.57
2019-03-01T02:23:41.008Z,7.00
2019-03-01T02:26:09.462Z,14.23
2019-03-01T02:28:37.998Z,10.07
2019-03-01T02:31:08.651Z,13.90
2019-03-01T02:33:37.084Z,18.17
2019-03-01T02:36:05.499Z,7.37
2019-03-01T02:38:33.963Z,16.20
2019-03-01T02:41:02.431Z,13.70
2019-03-01T02:43:30.843Z,10.67
2019-03-01T02:45:59.292Z,20.57
2019-03-01T02:48:27.716Z,21.00
2019-03-01T02:50:56.119Z,6.90
2019-03-01T02:53:24.594Z,17.17
2019-03-01T02:55:54.304Z,10.43
2019-03-01T02:58:22.750Z,9.47
2019-03-01T03:00:51.201Z,15.73
2019-03-01T03:03:19.597Z,26.40
2019-03-01T03:05:52.100Z,6.37
2019-03-01T03:08:20.527Z,14.10
2019-03-01T03:10:49.007Z,11.10
2019-03-01T03:13:17.502Z,7.50
2019-03-01T03:15:47.485Z,18.40
2019-03-01T03:18:15.959Z,11.93
2019-03-01T03:20:44.466Z,7.93
2019-03-01T03:23:13.043Z,16.40
2019-03-01T03:25:41.534Z,9.40
2019-03-01T03:28:10.031Z,14.30
2019-03-01T03:30:38.437Z,8.20
2019-03-01T03:33:06.831Z,12.93
2019-03-01T03:35:35.357Z,10.03
2019-03-01T03:38:03.832Z,13.30
2019-03-01T03:40:32.232Z,9.80
2019-03-01T03:43:00.743Z,10.87
2019-03-01T03:45:29.274Z,10.70
2019-03-01T03:47:57.746Z,9.00
2019-03-01T03:50:26.269Z,8.10
2019-03-01T03:52:54.673Z,16.50
2019-03-01T03:55:23.078Z,9.70
2019-03-01T03:57:51.513Z,11.57
2019-03-01T04:00:24.706Z,10.97
2019-03-01T04:02:53.263Z,14.83
2019-03-01T04:05:21.719Z,7.47
2019-03-01T04:07:50.130Z,7.20
2019-03-01T04:10:18.711Z,3.23
2019-03-01T04:12:47.144Z,16.40
2019-03-01T04:15:16.678Z,14.37
2019-03-01T04:17:45.195Z,14.73
2019-03-01T04:20:16.100Z,13.03
2019-03-01T04:22:44.574Z,6.60
2019-03-01T04:25:13.005Z,14.57
2019-03-01T04:27:41.526Z,21.33
2019-03-01T04:30:17.423Z,11.10
2019-03-01T04:32:46.776Z,23.30
2019-03-01T04:35:15.571Z,8.30
2019-03-01T04:37:44.007Z,11.70
2019-03-01T04:40:15.995Z,13.27
2019-03-01T04:42:44.473Z,7.10
2019-03-01T04:45:14.417Z,9.30
2019-03-01T04:47:42.886Z,7.70
2019-03-01T04:50:12.208Z,12.60
2019-03-01T04:52:41.235Z,5.03
2019-03-01T04:55:12.948Z,9.30
2019-03-01T04:57:41.494Z,4.07
2019-03-01T05:00:15.796Z,10.10
2019-03-01T05:02:44.319Z,12.20
2019-03-01T05:05:12.963Z,12.90
2019-03-01T05:07:41.463Z,11.43
2019-03-01T05:10:11.711Z,11.27
2019-03-01T05:12:40.118Z,8.30
2019-03-01T05:15:16.894Z,11.13
2019-03-01T05:17:45.303Z,6.97
2019-03-01T05:20:13.786Z,16.53
2019-03-01T05:22:42.214Z,8.93
2019-03-01T05:25:11.266Z,13.73
2019-03-01T05:27:39.775Z,7.77
2019-03-01T05:30:18.495Z,10.40
2019-03-01T05:32:46.909Z,8.27
2019-03-01T05:35:15.353Z,11.60
2019-03-01T05:37:43.785Z,9.87
2019-03-01T05:40:14.683Z,11.73
2019-03-01T05:42:43.097Z,10.47
2019-03-01T05:45:26.753Z,15.80
2019-03-01T05:47:55.150Z,14.03
2019-03-01T05:50:23.690Z,9.97
2019-03-01T05:52:52.117Z,5.33
2019-03-01T05:55:20.527Z,9.70
2019-03-01T05:58:20.886Z,16.37
2019-03-01T06:00:51.951Z,5.37
2019-03-01T06:03:40.494Z,11.37
2019-03-01T06:06:11.933Z,10.37
2019-03-01T06:08:52.698Z,10.67
2019-03-01T06:11:33.248Z,5.53
2019-03-01T06:14:07.830Z,7.50
2019-03-01T06:17:03.221Z,10.23
2019-03-01T06:19:37.869Z,6.97
2019-03-01T06:22:36.887Z,6.40
2019-03-01T06:25:33.043Z,8.30
2019-03-01T06:28:36.314Z,10.83
2019-03-01T06:31:20.169Z,10.90
2019-03-01T06:34:22.416Z,15.80
2019-03-01T06:37:13.719Z,10.87
2019-03-01T06:40:27.119Z,17.43
2019-03-01T06:43:04.407Z,18.63
2019-03-01T06:46:00.170Z,17.67
2019-03-01T06:48:45.298Z,17.40
2019-03-01T06:51:15.374Z,15.43
2019-03-01T06:53:43.851Z,14.70
2019-03-01T06:56:12.287Z,19.83
2019-03-01T06:58:40.724Z,23.10
2019-03-01T07:01:10.812Z,23.53
2019-03-01T07:03:39.306Z,23.17
2019-03-01T07:06:07.714Z,29.63
2019-03-01T07:08:36.195Z,25.60
2019-03-01T07:11:04.678Z,29.17
2019-03-01T07:13:33.055Z,29.13
2019-03-01T07:16:01.589Z,33.10
2019-03-01T07:18:30.027Z,27.97
2019-03-01T07:20:58.510Z,22.10
2019-03-01T07:23:36.227Z,31.23
2019-03-01T07:25:57.020Z,40.17
2019-03-01T07:28:25.499Z,37.70
2019-03-01T07:30:53.981Z,33.27
2019-03-01T07:33:22.480Z,24.73
2019-03-01T07:35:50.962Z,32.07
2019-03-01T07:38:19.379Z,22.87
2019-03-01T07:40:47.819Z,34.57
2019-03-01T07:43:16.233Z,23.93
2019-03-01T07:45:44.863Z,28.80
2019-03-01T07:48:13.258Z,29.23
2019-03-01T07:50:41.673Z,28.83
2019-03-01T07:53:10.162Z,37.00
2019-03-01T07:55:38.645Z,24.10
2019-03-01T07:58:07.056Z,22.90
2019-03-01T08:00:35.570Z,31.93
2019-03-01T08:03:04.012Z,21.73
2019-03-01T08:05:35.594Z,26.77
2019-03-01T08:08:03.490Z,35.93
2019-03-01T08:10:32.266Z,25.00
2019-03-01T08:13:00.792Z,27.50
2019-03-01T08:15:29.229Z,35.83
2019-03-01T08:17:57.742Z,24.17
2019-03-01T08:20:26.158Z,40.67
2019-03-01T08:22:56.843Z,19.27
2019-03-01T08:25:24.819Z,35.13
2019-03-01T08:27:53.235Z,44.80
2019-03-01T08:30:21.781Z,51.93
2019-03-01T08:32:50.196Z,38.00
2019-03-01T08:35:19.131Z,26.60
2019-03-01T08:37:49.814Z,29.30
2019-03-01T08:40:18.465Z,28.40
2019-03-01T08:42:46.895Z,24.37
2019-03-01T08:45:20.273Z,36.37
2019-03-01T08:47:49.107Z,29.43
2019-03-01T08:50:17.781Z,27.33
2019-03-01T08:52:46.750Z,20.40
2019-03-01T08:55:17.986Z,27.07
2019-03-01T08:57:46.471Z,24.80
2019-03-01T09:00:17.791Z,21.10
2019-03-01T09:02:46.339Z,43.20
2019-03-01T09:05:14.890Z,20.40
2019-03-01T09:07:43.391Z,30.43
2019-03-01T09:10:14.302Z,35.03
2019-03-01T09:12:42.784Z,43.70
2019-03-01T09:15:15.610Z,40.70
2019-03-01T09:17:44.128Z,43.03
2019-03-01T09:20:14.540Z,40.97
2019-03-01T09:22:44.623Z,48.50
2019-03-01T09:25:14.698Z,38.33
2019-03-01T09:27:43.220Z,38.23
2019-03-01T09:30:23.043Z,39.73
2019-03-01T09:32:51.542Z,36.27
2019-03-01T09:35:29.878Z,37.77
2019-03-01T09:37:58.762Z,30.43
2019-03-01T09:40:29.016Z,28.50
2019-03-01T09:42:57.555Z,29.10
2019-03-01T09:45:35.627Z,30.07
2019-03-01T09:47:56.171Z,32.90
2019-03-01T09:50:24.691Z,32.63
2019-03-01T09:52:55.602Z,32.10
2019-03-01T09:55:24.543Z,22.50
2019-03-01T09:57:53.058Z,22.70
2019-03-01T10:00:24.810Z,31.57
2019-03-01T10:02:53.251Z,33.93
2019-03-01T10:05:21.794Z,28.60
2019-03-01T10:07:50.221Z,28.40
2019-03-01T10:10:30.088Z,31.27
2019-03-01T10:12:58.499Z,25.10
2019-03-01T10:15:26.911Z,24.93
2019-03-01T10:17:55.348Z,22.43
2019-03-01T10:20:23.802Z,24.50
2019-03-01T10:22:52.217Z,21.93
2019-03-01T10:25:21.310Z,25.17
2019-03-01T10:27:49.758Z,26.10
2019-03-01T10:30:25.373Z,24.23
2019-03-01T10:32:53.855Z,18.57
2019-03-01T10:35:22.319Z,15.13
2019-03-01T10:37:50.822Z,14.93
2019-03-01T10:40:20.662Z,23.40
2019-03-01T10:42:49.138Z,18.93
2019-03-01T10:45:26.686Z,13.37
2019-03-01T10:47:55.096Z,11.27
2019-03-01T10:50:23.532Z,12.33
2019-03-01T10:52:51.980Z,16.37
2019-03-01T10:55:23.063Z,12.60
2019-03-01T10:57:51.473Z,15.47
2019-03-01T11:00:22.498Z,15.30
2019-03-01T11:02:51.037Z,11.47
2019-03-01T11:05:19.710Z,20.00
2019-03-01T11:07:49.239Z,20.53
2019-03-01T11:10:23.502Z,13.40
2019-03-01T11:12:51.907Z,16.17
2019-03-01T11:15:20.419Z,19.53
2019-03-01T11:17:48.966Z,22.30
2019-03-01T11:20:18.283Z,17.90
2019-03-01T11:22:46.778Z,16.40
2019-03-01T11:25:19.722Z,21.47
2019-03-01T11:27:48.130Z,19.20
2019-03-01T11:30:28.302Z,18.90
2019-03-01T11:32:56.705Z,20.17
2019-03-01T11:35:25.251Z,17.40
2019-03-01T11:37:53.746Z,13.13
2019-03-01T11:40:25.119Z,18.93
2019-03-01T11:42:53.635Z,19.10
2019-03-01T11:45:22.078Z,25.70
2019-03-01T11:47:51.715Z,20.30
2019-03-01T11:50:21.940Z,27.50
2019-03-01T11:52:50.427Z,20.83
2019-03-01T11:55:18.939Z,27.50
2019-03-01T11:57:47.432Z,25.30
2019-03-01T12:00:23.402Z,31.70
2019-03-01T12:02:51.884Z,24.20
2019-03-01T12:05:21.010Z,31.77
2019-03-01T12:07:49.638Z,28.60
2019-03-01T12:10:20.643Z,26.43
2019-03-01T12:12:49.127Z,27.03
2019-03-01T12:15:17.582Z,30.93
2019-03-01T12:17:46.182Z,31.07
2019-03-01T12:20:33.782Z,29.73
2019-03-01T12:23:02.299Z,28.57
2019-03-01T12:25:30.787Z,33.53
2019-03-01T12:27:59.222Z,29.37
2019-03-01T12:30:27.703Z,33.07
2019-03-01T12:32:56.184Z,30.77
2019-03-01T12:35:24.762Z,28.63
2019-03-01T12:37:53.170Z,34.23
2019-03-01T12:40:26.684Z,27.67
2019-03-01T12:42:55.119Z,32.47
2019-03-01T12:45:23.571Z,35.37
2019-03-01T12:47:52.099Z,32.63
2019-03-01T12:50:20.538Z,34.93
2019-03-01T12:52:49.659Z,33.47
2019-03-01T12:55:20.514Z,34.30
2019-03-01T12:57:49.035Z,33.27
2019-03-01T13:00:35.742Z,26.83
2019-03-01T13:03:05.249Z,28.63
2019-03-01T13:05:34.268Z,27.43
2019-03-01T13:08:02.698Z,29.90
2019-03-01T13:10:40.278Z,26.17
2019-03-01T13:13:08.582Z,32.20
2019-03-01T13:15:37.163Z,28.13
2019-03-01T13:18:05.674Z,30.93
2019-03-01T13:20:37.264Z,27.90
2019-03-01T13:23:04.853Z,33.60
2019-03-01T13:25:34.443Z,28.57
2019-03-01T13:28:03.034Z,36.20
2019-03-01T13:30:32.728Z,28.07
2019-03-01T13:33:02.612Z,25.27
2019-03-01T13:35:31.571Z,28.47
2019-03-01T13:38:00.064Z,30.37
2019-03-01T13:40:28.526Z,31.00
2019-03-01T13:42:56.938Z,24.73
2019-03-01T13:45:26.294Z,31.00
2019-03-01T13:47:54.742Z,33.47
2019-03-01T13:50:23.294Z,28.70
2019-03-01T13:52:51.722Z,33.00
2019-03-01T13:55:22.192Z,33.83
2019-03-01T13:57:51.373Z,37.63
2019-03-01T14:00:21.989Z,34.00
2019-03-01T14:02:50.514Z,39.93
2019-03-01T14:05:18.921Z,38.77
2019-03-01T14:07:48.035Z,36.60
2019-03-01T14:10:25.315Z,35.17
2019-03-01T14:12:53.791Z,36.33
2019-03-01T14:15:22.206Z,35.67
2019-03-01T14:17:51.652Z,34.93
2019-03-01T14:20:21.384Z,35.93
2019-03-01T14:22:49.866Z,33.00
2019-03-01T14:25:18.438Z,36.43
2019-03-01T14:27:46.830Z,34.33
2019-03-01T14:30:18.612Z,36.20
2019-03-01T14:32:47.046Z,36.83
2019-03-01T14:35:15.568Z,40.17
2019-03-01T14:37:44.052Z,33.50
2019-03-01T14:40:14.500Z,36.67
2019-03-01T14:42:46.394Z,39.57
2019-03-01T14:45:18.711Z,37.70
2019-03-01T14:47:47.290Z,48.57
2019-03-01T14:50:17.911Z,36.33
2019-03-01T14:52:46.344Z,32.47
2019-03-01T14:55:19.859Z,29.13
2019-03-01T14:57:50.992Z,33.10
2019-03-01T15:00:22.716Z,36.73
2019-03-01T15:03:15.968Z,30.53
2019-03-01T15:05:42.116Z,29.13
2019-03-01T15:08:09.447Z,32.60
2019-03-01T15:10:37.986Z,23.90
2019-03-01T15:13:06.379Z,33.40
2019-03-01T15:15:34.790Z,36.77
2019-03-01T15:18:03.295Z,28.87
2019-03-01T15:20:31.710Z,42.70
2019-03-01T15:23:00.219Z,30.50
2019-03-01T15:25:28.746Z,34.17
2019-03-01T15:27:57.143Z,42.53
2019-03-01T15:30:25.622Z,36.97
2019-03-01T15:32:54.135Z,32.67
2019-03-01T15:35:22.538Z,37.43
2019-03-01T15:37:50.984Z,40.00
2019-03-01T15:40:19.419Z,39.20
2019-03-01T15:42:47.851Z,40.70
2019-03-01T15:45:16.347Z,29.57
2019-03-01T15:47:44.958Z,32.90
2019-03-01T15:50:14.322Z,37.77
2019-03-01T15:52:45.616Z,37.67
2019-03-01T15:55:12.948Z,40.93
2019-03-01T15:57:41.466Z,49.23
2019-03-01T16:00:15.842Z,52.97
2019-03-01T16:02:44.340Z,49.73
2019-03-01T16:05:13.962Z,56.73
2019-03-01T16:07:42.579Z,54.33
2019-03-01T16:10:15.908Z,54.23
2019-03-01T16:12:44.349Z,51.83
2019-03-01T16:15:14.364Z,54.27
2019-03-01T16:17:42.875Z,45.97
2019-03-01T16:20:16.464Z,48.13
2019-03-01T16:22:44.878Z,38.43
2019-03-01T16:25:17.161Z,43.20
2019-03-01T16:27:45.630Z,45.20
2019-03-01T16:30:17.589Z,41.70
2019-03-01T16:32:49.748Z,50.93
2019-03-01T16:35:22.286Z,38.60
2019-03-01T16:37:57.799Z,43.50
2019-03-01T16:40:25.551Z,42.10
2019-03-01T16:42:54.631Z,41.53
2019-03-01T16:45:23.441Z,42.70
2019-03-01T16:47:51.897Z,35.10
2019-03-01T16:50:20.683Z,35.73
2019-03-01T16:52:49.276Z,31.10
2019-03-01T16:55:28.829Z,38.60
2019-03-01T16:58:06.192Z,39.47
2019-03-01T17:00:27.582Z,38.10
2019-03-01T17:03:04.882Z,40.03
2019-03-01T17:05:35.735Z,35.23
2019-03-01T17:08:05.794Z,41.03
2019-03-01T17:10:33.466Z,38.57
2019-03-01T17:13:01.870Z,41.17
2019-03-01T17:15:30.903Z,38.13
2019-03-01T17:17:59.383Z,42.13
2019-03-01T17:20:27.819Z,39.00
2019-03-01T17:22:59.788Z,42.93
2019-03-01T17:25:26.868Z,43.20
2019-03-01T17:27:56.142Z,38.50
2019-03-01T17:30:27.417Z,40.97
2019-03-01T17:32:55.971Z,38.70
2019-03-01T17:35:24.442Z,38.80
2019-03-01T17:37:52.963Z,32.70
2019-03-01T17:40:21.523Z,39.33
2019-03-01T17:42:49.924Z,35.63
2019-03-01T17:45:22.437Z,31.80
2019-03-01T17:47:51.250Z,35.03
2019-03-01T17:50:19.661Z,30.97
2019-03-01T17:52:48.256Z,34.43
2019-03-01T17:55:18.958Z,37.73
2019-03-01T17:57:47.441Z,35.70
2019-03-01T18:00:41.634Z,35.30
2019-03-01T18:03:10.138Z,38.70
2019-03-01T18:05:40.708Z,29.80
2019-03-01T18:08:08.842Z,32.80
2019-03-01T18:10:37.280Z,33.87
2019-03-01T18:13:05.678Z,35.37
2019-03-01T18:15:34.170Z,30.80
2019-03-01T18:18:02.580Z,29.70
2019-03-01T18:20:33.873Z,27.73
2019-03-01T18:23:02.177Z,24.53
2019-03-01T18:25:31.463Z,32.27
2019-03-01T18:27:59.952Z,25.47
2019-03-01T18:30:33.360Z,23.93
2019-03-01T18:33:01.791Z,24.20
2019-03-01T18:35:30.208Z,24.70
2019-03-01T18:37:58.686Z,25.80
2019-03-01T18:40:27.186Z,25.30
2019-03-01T18:42:55.610Z,23.03
2019-03-01T18:45:27.710Z,21.63
2019-03-01T18:47:56.198Z,21.97
2019-03-01T18:50:34.970Z,30.10
2019-03-01T18:53:04.241Z,27.40
2019-03-01T18:55:32.859Z,26.63
2019-03-01T18:58:01.289Z,28.23
2019-03-01T19:00:36.945Z,25.67
2019-03-01T19:03:06.344Z,26.17
2019-03-01T19:05:36.642Z,23.80
2019-03-01T19:08:06.162Z,24.30
2019-03-01T19:10:35.405Z,21.27
2019-03-01T19:13:04.043Z,28.00
2019-03-01T19:15:32.459Z,28.40
2019-03-01T19:18:02.652Z,31.17
2019-03-01T19:20:46.187Z,21.73
2019-03-01T19:23:14.710Z,31.23
2019-03-01T19:25:43.123Z,25.77
2019-03-01T19:28:11.567Z,35.73
2019-03-01T19:30:40.097Z,23.67
2019-03-01T19:33:08.505Z,28.63
2019-03-01T19:35:36.997Z,26.70
2019-03-01T19:38:05.652Z,28.20
2019-03-01T19:40:34.231Z,34.17
2019-03-01T19:43:02.707Z,32.23
2019-03-01T19:45:31.240Z,38.90
2019-03-01T19:48:03.262Z,26.77
2019-03-01T19:50:30.303Z,34.27
2019-03-01T19:52:58.804Z,30.73
2019-03-01T19:55:27.290Z,34.23
2019-03-01T19:57:55.778Z,34.80
2019-03-01T20:00:34.396Z,32.57
2019-03-01T20:03:02.814Z,28.23
2019-03-01T20:05:35.270Z,39.33
2019-03-01T20:08:03.799Z,32.80
2019-03-01T20:10:32.226Z,37.17
2019-03-01T20:13:00.757Z,30.03
2019-03-01T20:15:30.266Z,31.57
2019-03-01T20:17:58.753Z,32.90
2019-03-01T20:20:29.901Z,31.07
2019-03-01T20:22:58.510Z,40.87
2019-03-01T20:25:26.991Z,36.30
2019-03-01T20:28:16.302Z,36.70
2019-03-01T20:30:44.913Z,39.57
2019-03-01T20:33:13.399Z,40.80
2019-03-01T20:35:41.855Z,40.47
2019-03-01T20:38:10.306Z,40.40
2019-03-01T20:40:38.706Z,38.37
2019-03-01T20:43:07.256Z,45.23
2019-03-01T20:45:38.137Z,30.00
2019-03-01T20:48:06.614Z,38.30
2019-03-01T20:50:36.566Z,32.70
2019-03-01T20:53:05.123Z,35.70
2019-03-01T20:55:36.967Z,39.43
2019-03-01T20:58:04.707Z,37.07
2019-03-01T21:00:33.124Z,29.30
2019-03-01T21:03:01.572Z,43.37
2019-03-01T21:05:30.558Z,48.53
2019-03-01T21:07:59.212Z,46.70
2019-03-01T21:10:29.369Z,37.17
2019-03-01T21:12:57.808Z,42.77
2019-03-01T21:15:26.319Z,49.50
2019-03-01T21:17:57.105Z,39.43
2019-03-01T21:20:25.101Z,43.47
2019-03-01T21:22:53.511Z,43.97
2019-03-01T21:25:23.177Z,33.73
2019-03-01T21:27:51.686Z,48.80
2019-03-01T21:30:25.189Z,40.10
2019-03-01T21:32:53.595Z,41.57
2019-03-01T21:35:22.102Z,42.57
2019-03-01T21:37:51.529Z,45.10
2019-03-01T21:40:20.064Z,41.20
2019-03-01T21:42:48.716Z,46.07
2019-03-01T21:45:21.465Z,34.50
2019-03-01T21:47:49.656Z,46.57
2019-03-01T21:50:18.328Z,43.77
2019-03-01T21:52:46.814Z,41.93
2019-03-01T21:55:18.558Z,50.63
2019-03-01T21:57:48.260Z,52.33
2019-03-01T22:00:29.744Z,48.50
2019-03-01T22:02:58.316Z,43.77
2019-03-01T22:05:26.724Z,51.60
2019-03-01T22:07:55.379Z,53.37
2019-03-01T22:10:23.872Z,51.83
2019-03-01T22:12:52.282Z,46.87
2019-03-01T22:15:30.053Z,54.00
2019-03-01T22:17:58.479Z,55.13
2019-03-01T22:20:26.966Z,48.03
2019-03-01T22:22:55.406Z,55.20
2019-03-01T22:25:23.927Z,65.97
2019-03-01T22:27:52.338Z,57.60
2019-03-01T22:30:33.814Z,52.63
2019-03-01T22:33:02.295Z,53.80
2019-03-01T22:35:30.706Z,49.87
2019-03-01T22:38:00.897Z,58.37
2019-03-01T22:40:29.556Z,53.03
2019-03-01T22:42:58.122Z,52.77
2019-03-01T22:45:26.822Z,52.50
2019-03-01T22:47:55.244Z,65.33
2019-03-01T22:50:23.683Z,56.20
2019-03-01T22:52:52.161Z,68.63
2019-03-01T22:55:20.738Z,60.00
2019-03-01T22:57:49.150Z,59.53
2019-03-01T23:00:48.026Z,61.43
2019-03-01T23:03:18.813Z,71.13
2019-03-01T23:05:47.332Z,69.37
2019-03-01T23:08:15.778Z,66.97
2019-03-01T23:10:44.259Z,58.67
2019-03-01T23:13:12.667Z,63.63
2019-03-01T23:15:43.340Z,66.73
2019-03-01T23:18:11.230Z,63.10
2019-03-01T23:20:39.751Z,59.57
2019-03-01T23:23:08.253Z,66.70
2019-03-01T23:25:36.735Z,56.57
2019-03-01T23:28:08.268Z,58.93
2019-03-01T23:30:35.353Z,64.17
2019-03-01T23:33:03.764Z,65.17
2019-03-01T23:35:32.314Z,74.27
2019-03-01T23:38:00.762Z,64.30
2019-03-01T23:40:29.174Z,75.23
2019-03-01T23:42:57.596Z,58.83
2019-03-01T23:45:26.026Z,68.80
2019-03-01T23:47:54.511Z,61.43
2019-03-01T23:50:22.934Z,57.57
2019-03-01T23:52:54.954Z,68.67
2019-03-01T23:55:21.641Z,57.00
2019-03-01T23:57:51.172Z,48.87
